Time;durP1;ratioP1;P1;durP2;ratioP2;P2;SDS_P1;SDS_P2;PMS_P1;PMS_P2;Temp;Humidity;BMP_temperature;BMP_pressure;BME280_temperature;BME280_humidity;BME280_pressure;Samples;Min_cycle;Max_cycle;Signal;HPM_P1;HPM_P2
2022/10/13 00:02:12;;;;;;;21.77;16.70;;;;;;;10.93;100.00;96930.91;5009155;28;102478;-62
2022/10/13 00:04:40;;;;;;;19.57;16.43;;;;;;;10.92;100.00;96931.13;5007268;28;106108;-62
2022/10/13 00:07:10;;;;;;;22.23;17.90;;;;;;;10.86;100.00;96921.44;5009008;28;101857;-62
2022/10/13 00:09:37;;;;;;;23.93;18.53;;;;;;;10.76;100.00;96926.59;5007565;28;105060;-62
2022/10/13 00:12:04;;;;;;;28.57;19.47;;;;;;;10.67;100.00;96920.03;5007225;28;105159;-62
2022/10/13 00:14:32;;;;;;;27.73;19.63;;;;;;;10.63;100.00;96919.69;5007491;28;101952;-62
2022/10/13 00:20:22;;;;;;;23.87;18.83;;;;;;;10.51;100.00;96916.28;5007111;28;104243;-62
2022/10/13 00:22:50;;;;;;;25.90;18.13;;;;;;;10.49;100.00;96920.22;5010809;28;101898;-62
2022/10/13 00:25:17;;;;;;;24.83;18.67;;;;;;;10.50;100.00;96921.81;5010204;28;105453;-62
2022/10/13 00:28:25;;;;;;;31.27;19.50;;;;;;;10.47;100.00;96914.34;5010755;28;102035;-62
2022/10/13 00:30:53;;;;;;;21.90;17.63;;;;;;;10.45;100.00;96911.09;5010667;28;105216;-62
2022/10/13 00:33:20;;;;;;;21.80;17.33;;;;;;;10.34;100.00;96903.97;5010057;28;105545;-62
2022/10/13 00:35:54;;;;;;;22.37;17.93;;;;;;;10.28;100.00;96907.56;5010741;28;102018;-62
2022/10/13 00:38:23;;;;;;;22.97;17.47;;;;;;;10.23;100.00;96908.28;5010626;28;105798;-62
2022/10/13 00:40:53;;;;;;;23.57;17.40;;;;;;;10.18;100.00;96910.81;5010133;28;105443;-62
2022/10/13 00:43:22;;;;;;;26.47;18.30;;;;;;;10.09;100.00;96906.91;5010577;28;101867;-62
2022/10/13 00:49:14;;;;;;;21.33;17.93;;;;;;;10.15;100.00;96903.31;5010440;28;101926;-62
2022/10/13 00:52:12;;;;;;;22.50;17.20;;;;;;;10.04;100.00;96903.34;5010480;28;103906;-62
2022/10/13 00:54:41;;;;;;;21.53;17.17;;;;;;;10.04;100.00;96904.16;5009253;28;105196;-62
2022/10/13 00:57:14;;;;;;;17.80;15.90;;;;;;;10.09;100.00;96900.81;5010379;28;101920;-62
2022/10/13 00:59:42;;;;;;;17.23;15.43;;;;;;;10.09;100.00;96906.91;5010254;28;105115;-62
2022/10/13 01:02:09;;;;;;;20.97;16.33;;;;;;;9.94;100.00;96895.13;5009757;28;105749;-62
2022/10/13 01:04:42;;;;;;;17.73;15.63;;;;;;;10.00;100.00;96902.16;5011604;28;101847;-62
2022/10/13 01:07:56;;;;;;;16.23;14.13;;;;;;;9.94;100.00;96897.78;5011789;28;102401;-62
2022/10/13 01:10:34;;;;;;;16.17;14.47;;;;;;;10.02;100.00;96889.44;5012918;28;105115;-62
2022/10/13 01:13:08;;;;;;;16.73;14.83;;;;;;;10.06;100.00;96885.31;5010350;28;105100;-62
2022/10/13 01:15:43;;;;;;;15.10;13.57;;;;;;;10.00;100.00;96888.88;5009677;28;105801;-62
2022/10/13 01:18:21;;;;;;;26.17;16.00;;;;;;;10.02;100.00;96884.94;5009890;28;101824;-62
2022/10/13 01:21:26;;;;;;;16.07;14.37;;;;;;;9.97;100.00;96886.72;5010016;28;105496;-62
2022/10/13 01:24:41;;;;;;;17.03;14.67;;;;;;;9.92;100.00;96889.25;5009486;28;106050;-62
2022/10/13 01:27:46;;;;;;;18.63;15.67;;;;;;;9.95;100.00;96888.78;5009895;28;101801;-62
2022/10/13 01:30:18;;;;;;;18.87;15.07;;;;;;;9.74;100.00;96882.22;5009942;28;103543;-62
2022/10/13 01:33:08;;;;;;;19.73;16.13;;;;;;;9.79;100.00;96892.16;5009269;28;104351;-62
2022/10/13 01:35:49;;;;;;;27.70;19.00;;;;;;;9.77;100.00;96886.28;5018922;28;102079;-62
2022/10/13 01:38:25;;;;;;;24.17;19.07;;;;;;;9.70;100.00;96886.38;5029307;28;105757;-62
2022/10/13 01:41:00;;;;;;;23.03;19.00;;;;;;;9.72;100.00;96878.19;5031290;28;101684;-62
2022/10/13 01:43:35;;;;;;;27.63;20.03;;;;;;;9.73;100.00;96882.47;5029808;28;105523;-62
2022/10/13 01:46:10;;;;;;;23.27;19.10;;;;;;;9.68;100.00;96872.53;5029237;28;105375;-62
2022/10/13 01:48:40;;;;;;;24.47;19.00;;;;;;;9.65;100.00;96883.63;5029701;28;101798;-62
2022/10/13 01:51:47;;;;;;;24.33;17.83;;;;;;;9.63;100.00;96879.56;5029667;28;104443;-62
2022/10/13 01:54:14;;;;;;;21.50;18.17;;;;;;;9.50;100.00;96875.34;5028826;28;104096;-62
2022/10/13 01:56:58;;;;;;;20.73;18.33;;;;;;;9.54;100.00;96871.16;5029548;28;101837;-62
2022/10/13 01:59:30;;;;;;;19.90;17.10;;;;;;;9.59;100.00;96867.81;5032384;28;105512;-62
2022/10/13 02:02:07;;;;;;;21.60;18.40;;;;;;;9.59;100.00;96862.50;5029717;28;101789;-62
2022/10/13 02:04:48;;;;;;;25.27;15.20;;;;;;;9.41;100.00;96871.41;5029694;28;105127;-62
2022/10/13 02:07:39;;;;;;;16.27;14.67;;;;;;;9.23;100.00;96876.00;5030691;28;103050;-62
2022/10/13 02:10:12;;;;;;;22.67;16.30;;;;;;;9.17;100.00;96883.03;5031034;28;101680;-62
2022/10/13 02:12:47;;;;;;;17.43;14.70;;;;;;;9.09;100.00;96883.38;5030968;28;102810;-62
2022/10/13 02:15:17;;;;;;;21.87;16.33;;;;;;;9.21;100.00;96886.06;5030410;28;103180;-62
2022/10/13 02:18:04;;;;;;;19.67;16.70;;;;;;;9.15;100.00;96885.13;5029079;28;101922;-62
2022/10/13 02:20:53;;;;;;;18.70;16.70;;;;;;;9.11;100.00;96883.16;5032235;28;104802;-62
2022/10/13 02:23:21;;;;;;;69.87;16.00;;;;;;;9.03;100.00;96886.13;5029143;28;101785;-62
2022/10/13 02:25:59;;;;;;;17.00;15.27;;;;;;;8.99;100.00;96885.78;5029000;28;105083;-62
2022/10/13 02:28:28;;;;;;;19.67;15.77;;;;;;;8.93;100.00;96885.88;5028676;28;105337;-62
2022/10/13 02:30:55;;;;;;;16.67;15.00;;;;;;;8.93;100.00;96891.19;5028997;28;102141;-62
2022/10/13 02:33:24;;;;;;;38.10;15.70;;;;;;;8.82;100.00;96887.47;5028918;28;105274;-62
2022/10/13 02:35:51;;;;;;;24.90;15.00;;;;;;;8.82;100.00;96881.34;5028391;28;105553;-62
2022/10/13 02:38:33;;;;;;;16.73;14.03;;;;;;;8.76;100.00;96885.72;5028827;28;101988;-62
2022/10/13 02:41:01;;;;;;;26.30;14.70;;;;;;;8.72;100.00;96886.41;4951172;28;103703;-62
2022/10/13 02:43:28;;;;;;;60.07;15.90;;;;;;;8.71;100.00;96890.09;4954299;28;105543;-62
2022/10/13 02:45:56;;;;;;;16.60;15.00;;;;;;;8.64;100.00;96892.84;4951335;28;105531;-62
2022/10/13 02:48:25;;;;;;;15.63;14.13;;;;;;;8.74;100.00;96890.47;4950891;28;105709;-62
2022/10/13 02:50:52;;;;;;;14.77;13.37;;;;;;;8.77;100.00;96895.31;4968135;28;102012;-62
2022/10/13 02:53:18;;;;;;;14.73;13.27;;;;;;;8.76;100.00;96898.16;4950942;28;105661;-62
2022/10/13 02:55:55;;;;;;;14.70;13.30;;;;;;;8.80;100.00;96905.47;4950766;28;104458;-62
2022/10/13 02:58:25;;;;;;;13.80;12.47;;;;;;;8.78;100.00;96896.13;4951111;28;101950;-62
2022/10/13 03:00:52;;;;;;;13.63;12.33;;;;;;;8.66;100.00;96897.91;4968077;28;102131;-62
2022/10/13 03:03:20;;;;;;;14.20;12.80;;;;;;;8.76;100.00;96903.47;4950831;28;105965;-62
2022/10/13 03:06:21;;;;;;;15.63;13.53;;;;;;;8.70;100.00;96893.78;4954407;28;102336;-62
2022/10/13 03:08:49;;;;;;;13.10;11.90;;;;;;;8.63;100.00;96893.88;4950692;28;105049;-62
2022/10/13 03:11:16;;;;;;;13.10;11.87;;;;;;;8.58;100.00;96901.72;4967672;28;101845;-62
2022/10/13 03:13:43;;;;;;;12.03;10.97;;;;;;;8.46;100.00;96902.69;4951299;28;104875;-62
2022/10/13 03:16:40;;;;;;;12.87;11.70;;;;;;;8.38;100.00;96910.94;4950653;28;105697;-62
2022/10/13 03:19:10;;;;;;;12.13;11.00;;;;;;;8.37;100.00;96904.03;5020908;28;102016;-62
2022/10/13 03:21:39;;;;;;;12.93;11.60;;;;;;;8.45;100.00;96904.53;5028232;28;104828;-62
2022/10/13 03:24:07;;;;;;;14.50;12.10;;;;;;;8.48;100.00;96911.22;5027729;28;103889;-62
2022/10/13 03:26:47;;;;;;;14.13;12.73;;;;;;;8.45;100.00;96901.09;5028350;28;101941;-62
2022/10/13 03:29:17;;;;;;;13.27;12.03;;;;;;;8.53;100.00;96900.75;5031172;28;105621;-62
2022/10/13 03:31:45;;;;;;;18.43;12.37;;;;;;;8.56;100.00;96902.97;5029452;28;101796;-62
2022/10/13 03:34:13;;;;;;;18.77;13.70;;;;;;;8.58;100.00;96900.88;5028196;28;105129;-62
2022/10/13 03:36:54;;;;;;;12.87;11.57;;;;;;;8.55;100.00;96901.31;5027595;28;105524;-62
2022/10/13 03:39:21;;;;;;;12.20;11.10;;;;;;;8.60;100.00;96898.81;5027911;28;101784;-62
2022/10/13 03:41:48;;;;;;;13.30;11.90;;;;;;;8.61;100.00;96900.44;5028222;28;104949;-62
2022/10/13 03:44:16;;;;;;;22.27;13.23;;;;;;;8.60;100.00;96898.81;5027587;28;105145;-62
2022/10/13 03:47:00;;;;;;;18.73;13.37;;;;;;;8.52;100.00;96907.09;5027916;28;101853;-62
2022/10/13 03:49:27;;;;;;;16.27;13.40;;;;;;;8.45;100.00;96906.38;5028038;28;105460;-62
2022/10/13 03:55:18;;;;;;;14.90;13.40;;;;;;;8.49;100.00;96899.56;5027731;28;105270;-62
2022/10/13 03:57:46;;;;;;;14.60;13.13;;;;;;;8.48;100.00;96900.63;5027486;27;105706;-62
2022/10/13 04:00:15;;;;;;;14.23;12.83;;;;;;;8.48;100.00;96896.13;5031050;28;101777;-62
2022/10/13 04:02:43;;;;;;;27.27;13.93;;;;;;;8.59;100.00;96887.41;5031485;28;104077;-62
2022/10/13 04:05:10;;;;;;;14.00;12.60;;;;;;;8.60;100.00;96890.84;5030868;28;105296;-62
2022/10/13 04:08:26;;;;;;;19.50;12.63;;;;;;;8.51;100.00;96886.94;5032612;27;101911;-62
2022/10/13 04:11:00;;;;;;;38.33;13.53;;;;;;;8.41;100.00;96884.00;5032913;27;102416;-62
2022/10/13 04:13:27;;;;;;;24.03;12.60;;;;;;;8.46;100.00;96884.13;5030822;28;103779;-62
2022/10/13 04:15:55;;;;;;;18.33;12.90;;;;;;;8.43;100.00;96888.03;5034667;28;101821;-61
2022/10/13 04:18:22;;;;;;;43.57;13.57;;;;;;;8.31;100.00;96883.72;5030495;28;105666;-62
2022/10/13 04:20:54;;;;;;;70.93;13.20;;;;;;;8.16;100.00;96886.75;5031042;28;101946;-62
2022/10/13 04:23:21;;;;;;;28.13;13.07;;;;;;;8.16;100.00;96884.09;5031216;28;104846;-62
2022/10/13 04:25:48;;;;;;;26.37;12.47;;;;;;;8.14;100.00;96885.34;5030467;28;105042;-62
2022/10/13 04:28:18;;;;;;;16.50;11.97;;;;;;;8.15;100.00;96879.00;5030915;28;101974;-62
2022/10/13 04:30:46;;;;;;;12.70;11.60;;;;;;;8.11;100.00;96885.78;5030477;28;105147;-62
2022/10/13 04:33:13;;;;;;;14.53;11.27;;;;;;;8.10;100.00;96881.50;5030333;28;105536;-62
2022/10/13 04:35:45;;;;;;;19.37;10.47;;;;;;;7.89;100.00;96892.56;5034053;28;102088;-62
2022/10/13 04:38:12;;;;;;;62.37;12.17;;;;;;;7.87;100.00;96894.63;5030205;28;105061;-62
2022/10/13 04:40:40;;;;;;;75.33;12.60;;;;;;;7.84;100.00;96887.94;5030938;28;101910;-61
2022/10/13 04:43:08;;;;;;;52.17;13.30;;;;;;;7.75;100.00;96893.75;5030654;28;105409;-61
2022/10/13 04:45:36;;;;;;;13.80;12.53;;;;;;;7.88;100.00;96888.28;5030130;28;106090;-61
2022/10/13 04:48:04;;;;;;;13.60;12.33;;;;;;;7.83;100.00;96896.09;5031861;28;101997;-61
2022/10/13 04:50:58;;;;;;;27.37;12.43;;;;;;;7.85;100.00;96889.53;5030294;28;104691;-63
2022/10/13 04:53:27;;;;;;;48.53;12.80;;;;;;;7.70;100.00;96894.38;5029494;28;105226;-62
2022/10/13 04:56:02;;;;;;;13.03;11.60;;;;;;;7.73;100.00;96893.16;5030448;28;101908;-62
2022/10/13 04:58:30;;;;;;;13.50;12.30;;;;;;;7.91;100.00;96895.81;5033386;28;105121;-62
2022/10/13 05:01:02;;;;;;;13.87;12.47;;;;;;;7.86;100.00;96896.44;5030465;28;101813;-63
2022/10/13 05:03:30;;;;;;;24.93;12.30;;;;;;;7.88;100.00;96902.34;5031703;28;102335;-63
2022/10/13 05:06:40;;;;;;;14.10;12.57;;;;;;;7.84;100.00;96905.66;5029684;28;105637;-63
2022/10/13 05:09:07;;;;;;;19.20;14.57;;;;;;;7.81;100.00;96904.25;5029989;27;101918;-63
2022/10/13 05:11:34;;;;;;;14.87;13.37;;;;;;;7.79;100.00;96910.81;5029902;28;105554;-63
2022/10/13 05:14:01;;;;;;;24.97;12.53;;;;;;;7.63;100.00;96911.41;5029659;28;105067;-63
2022/10/13 05:16:37;;;;;;;27.87;12.53;;;;;;;7.68;100.00;96914.19;5030558;28;101921;-63
2022/10/13 05:19:04;;;;;;;14.60;12.93;;;;;;;7.70;100.00;96904.19;5011377;28;102176;-63
2022/10/13 05:21:31;;;;;;;15.07;13.67;;;;;;;7.73;100.00;96907.19;5012772;28;103854;-63
2022/10/13 05:24:01;;;;;;;14.50;13.07;;;;;;;7.81;100.00;96904.25;5011716;28;101729;-62
2022/10/13 05:26:35;;;;;;;13.93;12.57;;;;;;;7.97;100.00;96906.31;5043268;27;104954;-63
2022/10/13 05:29:03;;;;;;;14.40;13.10;;;;;;;8.00;100.00;96908.53;5009883;28;101905;-63
2022/10/13 05:31:33;;;;;;;12.47;11.27;;;;;;;8.02;100.00;96910.97;5010001;28;105209;-63
2022/10/13 05:34:02;;;;;;;13.37;12.17;;;;;;;8.11;100.00;96907.78;5008844;28;103841;-62
2022/10/13 05:36:41;;;;;;;12.53;11.43;;;;;;;8.14;100.00;96910.00;5009747;28;102000;-62
2022/10/13 05:39:09;;;;;;;13.17;12.00;;;;;;;8.14;100.00;96914.47;5009662;28;104980;-62
2022/10/13 05:41:38;;;;;;;90.50;13.23;;;;;;;7.90;100.00;96915.38;5009290;28;103870;-62
2022/10/13 05:44:10;;;;;;;23.67;11.53;;;;;;;7.97;100.00;96918.75;5013087;28;101845;-62
2022/10/13 05:46:57;;;;;;;22.63;11.83;;;;;;;8.04;100.00;96916.84;5010618;28;105642;-62
2022/10/13 05:49:25;;;;;;;16.17;12.53;;;;;;;8.12;100.00;96921.84;5029615;28;102048;-62
2022/10/13 05:52:09;;;;;;;90.53;13.63;;;;;;;7.88;100.00;96918.25;5029592;28;103482;-62
2022/10/13 05:54:40;;;;;;;97.47;12.77;;;;;;;7.88;100.00;96918.25;5028505;28;104949;-62
2022/10/13 05:57:16;;;;;;;74.10;12.40;;;;;;;7.98;100.00;96920.38;5029642;28;101894;-62
2022/10/13 05:59:49;;;;;;;31.83;12.80;;;;;;;7.99;100.00;96914.84;5029485;28;105268;-62
2022/10/13 06:02:17;;;;;;;13.30;12.03;;;;;;;8.00;100.00;96915.66;5028972;28;105583;-62
2022/10/13 06:04:48;;;;;;;17.90;12.07;;;;;;;8.06;100.00;96917.41;5029119;28;102216;-61
2022/10/13 06:07:22;;;;;;;59.53;14.67;;;;;;;8.10;100.00;96916.78;5032822;28;102704;-61
2022/10/13 06:09:50;;;;;;;43.47;13.10;;;;;;;8.03;100.00;96921.34;5029167;28;101967;-61
2022/10/13 06:12:18;;;;;;;70.50;14.20;;;;;;;8.04;100.00;96920.31;5029083;28;103589;-61
2022/10/13 06:14:46;;;;;;;12.97;11.73;;;;;;;8.21;100.00;96920.53;5028706;28;105689;-62
2022/10/13 06:17:13;;;;;;;15.70;11.53;;;;;;;8.18;100.00;96920.97;5030249;28;102285;-61
2022/10/13 06:19:44;;;;;;;11.73;10.57;;;;;;;8.22;100.00;96922.97;5028648;28;105053;-61
2022/10/13 06:22:16;;;;;;;18.00;11.00;;;;;;;8.12;100.00;96924.50;5027795;28;105607;-62
2022/10/13 06:24:44;;;;;;;18.20;11.40;;;;;;;8.02;100.00;96925.00;5029286;28;101837;-62
2022/10/13 06:27:19;;;;;;;12.80;11.07;;;;;;;8.19;100.00;96927.88;5029114;28;104945;-62
2022/10/13 06:29:48;;;;;;;12.27;10.97;;;;;;;8.32;100.00;96927.72;5031636;28;101775;-62
2022/10/13 06:32:16;;;;;;;12.97;11.10;;;;;;;8.38;100.00;96927.66;5028738;28;105173;-62
2022/10/13 06:34:43;;;;;;;21.73;12.03;;;;;;;8.53;100.00;96922.78;5028291;28;105261;-62
2022/10/13 06:37:35;;;;;;;12.67;11.47;;;;;;;8.69;100.00;96927.44;5028894;28;101959;-62
2022/10/13 06:40:02;;;;;;;16.90;11.27;;;;;;;8.81;100.00;96922.16;5028767;28;104961;-61
2022/10/13 06:42:30;;;;;;;13.03;11.73;;;;;;;9.07;100.00;96921.78;5028424;28;105401;-61
2022/10/13 06:45:10;;;;;;;13.27;11.97;;;;;;;9.25;100.00;96919.84;5028291;28;102128;-61
2022/10/13 06:47:48;;;;;;;13.27;11.97;;;;;;;9.65;100.00;96920.00;5028078;28;104986;-61
2022/10/13 06:50:17;;;;;;;15.03;12.47;;;;;;;9.88;100.00;96925.28;5031343;28;105395;-61
2022/10/13 06:52:46;;;;;;;14.23;12.73;;;;;;;10.15;100.00;96915.81;5028405;28;104401;-61
2022/10/13 06:55:14;;;;;;;12.97;11.77;;;;;;;10.37;100.00;96914.91;5027656;28;104301;-61
2022/10/13 06:57:46;;;;;;;12.80;11.57;;;;;;;10.48;100.00;96914.06;5029807;28;102013;-61
2022/10/13 07:00:14;;;;;;;12.97;11.70;;;;;;;10.53;100.00;96908.06;5028528;28;104827;-61
2022/10/13 07:02:41;;;;;;;13.43;12.03;;;;;;;10.41;100.00;96909.97;5027769;28;104278;-61
2022/10/13 07:05:09;;;;;;;12.50;11.33;;;;;;;10.45;100.00;96911.91;5028198;28;102698;-61
2022/10/13 07:07:43;;;;;;;13.23;11.87;;;;;;;10.65;100.00;96911.47;5028162;28;105115;-61
2022/10/13 07:10:12;;;;;;;12.70;11.40;;;;;;;10.67;100.00;96915.53;5057307;27;104365;-62
2022/10/13 07:12:38;;;;;;;11.37;10.27;;;;;;;10.66;100.00;96913.09;5031809;28;101898;-61
2022/10/13 07:15:06;;;;;;;13.13;10.13;;;;;;;10.67;100.00;96906.72;5029118;28;102570;-62
2022/10/13 07:17:39;;;;;;;11.30;10.10;;;;;;;10.64;100.00;96907.22;5027912;28;103355;-61
2022/10/13 07:20:23;;;;;;;10.67;9.67;;;;;;;10.72;100.00;96902.31;5028122;28;105060;-61
2022/10/13 07:22:54;;;;;;;11.13;9.43;;;;;;;10.70;100.00;96900.94;5022190;28;105519;-61
2022/10/13 07:25:24;;;;;;;11.40;9.90;;;;;;;10.82;100.00;96899.03;5029222;28;102013;-61
2022/10/13 07:28:02;;;;;;;10.33;9.33;;;;;;;10.98;100.00;96906.22;5029027;28;104779;-61
2022/10/13 07:30:29;;;;;;;9.83;8.83;;;;;;;11.10;100.00;96898.97;5028460;28;105506;-61
2022/10/13 07:32:56;;;;;;;10.00;9.10;;;;;;;11.22;100.00;96899.72;5028334;28;101923;-61
2022/10/13 07:35:24;;;;;;;9.53;8.63;;;;;;;11.37;100.00;96894.63;5031535;28;104941;-61
2022/10/13 07:37:55;;;;;;;9.10;8.17;;;;;;;11.35;100.00;96894.06;5028898;28;102047;-62
2022/10/13 07:40:24;;;;;;;10.57;9.13;;;;;;;11.43;100.00;96883.00;5045906;27;104748;-62
2022/10/13 07:42:51;;;;;;;9.80;8.80;;;;;;;11.69;100.00;96887.69;5028442;28;103809;-62
2022/10/13 07:45:19;;;;;;;11.47;8.90;;;;;;;11.81;100.00;96883.06;5028804;28;101942;-61
2022/10/13 07:47:50;;;;;;;8.50;7.70;;;;;;;11.95;100.00;96881.66;5028812;28;105553;-61
2022/10/13 07:50:20;;;;;;;9.63;8.63;;;;;;;12.10;100.00;96881.88;5028104;28;105810;-60
2022/10/13 07:52:47;;;;;;;9.00;8.10;;;;;;;12.06;100.00;96880.75;5028586;28;102149;-60
2022/10/13 07:55:15;;;;;;;9.77;8.23;;;;;;;11.96;100.00;96877.94;5028475;28;105236;-60
2022/10/13 07:57:48;;;;;;;9.90;7.80;;;;;;;12.22;100.00;96871.88;5031184;28;105471;-60
2022/10/13 08:00:16;;;;;;;10.50;7.83;;;;;;;12.11;100.00;96870.16;5028286;28;104901;-60
2022/10/13 08:02:42;;;;;;;8.50;7.60;;;;;;;12.02;100.00;96867.09;5029436;28;102607;-60
2022/10/13 08:05:09;;;;;;;10.33;7.50;;;;;;;12.16;100.00;96871.00;5027359;28;102038;-61
2022/10/13 08:07:46;;;;;;;9.40;7.10;;;;;;;12.08;100.00;96860.78;5028393;28;105824;-60
2022/10/13 08:10:14;;;;;;;7.87;7.07;;;;;;;12.14;100.00;96858.97;5027870;28;105026;-60
2022/10/13 08:12:41;;;;;;;8.20;7.10;;;;;;;12.17;100.00;96864.63;5029485;27;101923;-60
2022/10/13 08:15:11;;;;;;;10.60;7.37;;;;;;;12.22;100.00;96856.66;5028246;28;105217;-60
2022/10/13 08:17:44;;;;;;;10.23;7.33;;;;;;;12.46;100.00;96862.53;5027119;28;105445;-60
2022/10/13 08:20:12;;;;;;;7.60;6.87;;;;;;;12.55;100.00;96861.88;5031726;28;101913;-60
2022/10/13 08:22:39;;;;;;;7.77;6.97;;;;;;;12.60;100.00;96855.78;5055641;27;104951;-61
2022/10/13 08:25:10;;;;;;;8.07;7.27;;;;;;;12.54;100.00;96857.56;5027270;28;103868;-60
2022/10/13 08:27:46;;;;;;;9.17;7.30;;;;;;;12.72;100.00;96856.41;5028303;28;105519;-60
2022/10/13 08:30:14;;;;;;;8.80;7.00;;;;;;;13.12;100.00;96856.81;5027724;28;105762;-61
2022/10/13 08:32:42;;;;;;;10.80;7.53;;;;;;;13.26;100.00;96840.13;5027926;28;101939;-61
2022/10/13 08:35:09;;;;;;;8.07;7.27;;;;;;;13.53;100.00;96840.03;5029540;28;102635;-61
2022/10/13 08:37:43;;;;;;;11.63;7.00;;;;;;;13.92;100.00;96842.16;5027587;28;105838;-60
2022/10/13 08:40:23;;;;;;;9.37;6.40;;;;;;;14.05;100.00;96833.63;5031598;28;102232;-60
2022/10/13 08:42:50;;;;;;;11.83;6.90;;;;;;;13.66;100.00;96837.72;5024030;28;105520;-61
2022/10/13 08:45:23;;;;;;;10.70;7.27;;;;;;;13.60;100.00;96837.94;5017169;28;101968;-60
2022/10/13 08:47:55;;;;;;;8.90;6.57;;;;;;;13.59;100.00;96836.31;5031571;28;105867;-61
2022/10/13 08:50:26;;;;;;;8.17;6.50;;;;;;;14.02;100.00;96831.47;5030797;28;105317;-60
2022/10/13 08:52:57;;;;;;;9.57;6.77;;;;;;;14.03;100.00;96821.59;5031034;28;103415;-60
2022/10/13 08:55:31;;;;;;;6.80;6.10;;;;;;;14.13;100.00;96811.75;5031113;28;105462;-60
2022/10/13 08:58:23;;;;;;;12.60;6.93;;;;;;;14.53;100.00;96811.88;5030288;28;105676;-60
2022/10/13 09:01:01;;;;;;;12.53;6.13;;;;;;;14.69;100.00;96815.38;5031135;28;102054;-60
2022/10/13 09:03:30;;;;;;;8.90;6.37;;;;;;;15.01;100.00;96815.97;5033283;28;105337;-60
2022/10/13 09:06:14;;;;;;;8.03;6.17;;;;;;;15.19;100.00;96815.41;5027862;28;102192;-60
2022/10/13 09:08:45;;;;;;;10.97;6.47;;;;;;;14.93;100.00;96819.19;5031026;28;105826;-60
2022/10/13 09:11:13;;;;;;;8.50;6.17;;;;;;;15.04;100.00;96818.13;5029770;28;105396;-61
2022/10/13 09:13:40;;;;;;;7.50;5.77;;;;;;;14.97;100.00;96812.19;5030678;28;101930;-61
2022/10/13 09:16:11;;;;;;;6.90;6.20;;;;;;;14.97;100.00;96818.38;5032033;28;102915;-61
2022/10/13 09:18:39;;;;;;;7.93;6.60;;;;;;;14.95;100.00;96819.72;5031748;28;102974;-61
2022/10/13 09:21:21;;;;;;;10.80;6.20;;;;;;;14.99;100.00;96812.75;5030089;28;101909;-61
2022/10/13 09:23:50;;;;;;;8.53;6.43;;;;;;;14.93;100.00;96809.25;5030654;28;105066;-61
2022/10/13 09:26:23;;;;;;;13.60;7.07;;;;;;;15.02;100.00;96806.84;5033296;28;105734;-61
2022/10/13 09:28:51;;;;;;;10.87;6.80;;;;;;;15.07;100.00;96813.03;5030644;28;104774;-61
2022/10/13 09:31:25;;;;;;;10.77;6.80;;;;;;;14.92;100.00;96813.00;5029932;28;103932;-61
2022/10/13 09:33:59;;;;;;;8.20;6.50;;;;;;;14.89;100.00;96820.78;5030698;28;103284;-61
2022/10/13 09:36:28;;;;;;;8.80;7.07;;;;;;;14.98;100.00;96811.94;5030677;28;105507;-61
2022/10/13 09:39:12;;;;;;;9.00;7.30;;;;;;;14.79;100.00;96810.06;5029790;28;105788;-61
2022/10/13 09:41:41;;;;;;;11.53;6.73;;;;;;;14.99;100.00;96804.72;5025158;28;102084;-61
2022/10/13 09:44:15;;;;;;;9.47;6.43;;;;;;;15.22;100.00;96806.84;5030348;28;104864;-61
2022/10/13 09:46:54;;;;;;;7.60;6.70;;;;;;;15.24;100.00;96810.06;5029650;28;105306;-60
2022/10/13 09:49:37;;;;;;;10.40;7.00;;;;;;;15.42;100.00;96812.22;5013733;28;101910;-61
2022/10/13 09:52:19;;;;;;;9.67;7.80;;;;;;;15.08;100.00;96803.91;5030193;27;106109;-61
2022/10/13 09:54:49;;;;;;;12.27;7.50;;;;;;;15.00;100.00;96801.75;5029586;28;101824;-60
2022/10/13 09:57:46;;;;;;;11.03;7.27;;;;;;;15.12;100.00;96804.16;5029219;27;104184;-60
2022/10/13 10:00:20;;;;;;;10.13;7.50;;;;;;;15.22;100.00;96804.19;5011424;28;105256;-60
2022/10/13 10:02:54;;;;;;;12.20;7.70;;;;;;;15.14;100.00;96802.00;5030453;28;102117;-61
2022/10/13 10:05:28;;;;;;;11.83;7.83;;;;;;;15.22;100.00;96804.19;5043752;27;105479;-61
2022/10/13 10:08:04;;;;;;;10.23;7.90;;;;;;;15.19;100.00;96799.34;5009424;28;105293;-60
2022/10/13 10:10:34;;;;;;;12.30;8.20;;;;;;;15.33;100.00;96803.94;5010340;28;101811;-60
2022/10/13 10:13:11;;;;;;;10.53;7.70;;;;;;;15.22;100.00;96796.13;5032962;28;104843;-60
2022/10/13 10:15:48;;;;;;;10.63;7.63;;;;;;;15.79;100.00;96799.25;5030128;28;101778;-60
2022/10/13 10:18:23;;;;;;;11.53;7.97;;;;;;;15.83;100.00;96797.66;5029855;28;105516;-60
2022/10/13 10:21:25;;;;;;;11.30;7.63;;;;;;;15.50;100.00;96787.53;5028420;28;105869;-60
2022/10/13 10:24:00;;;;;;;9.67;7.80;;;;;;;15.62;100.00;96785.38;5029925;28;101865;-60
2022/10/13 10:26:51;;;;;;;9.37;6.43;;;;;;;16.32;100.00;96777.03;5029916;28;105159;-60
2022/10/13 10:29:25;;;;;;;11.63;7.13;;;;;;;16.62;100.00;96782.28;5029290;28;105294;-60
2022/10/13 10:32:11;;;;;;;11.43;6.37;;;;;;;16.24;100.00;96772.28;5029651;28;101828;-60
2022/10/13 10:34:45;;;;;;;11.83;7.13;;;;;;;16.43;100.00;96773.25;5029700;28;105386;-60
2022/10/13 10:37:38;;;;;;;12.97;7.07;;;;;;;16.16;100.00;96778.19;5032545;28;105580;-60
2022/10/13 10:40:19;;;;;;;8.20;6.07;;;;;;;16.53;100.00;96773.19;5029381;28;105602;-60
2022/10/13 10:43:21;;;;;;;8.27;6.23;;;;;;;17.10;100.00;96765.22;5030240;28;103217;-60
2022/10/13 10:45:49;;;;;;;10.00;6.93;;;;;;;17.53;100.00;96758.94;4999084;27;102006;-60
2022/10/13 10:48:21;;;;;;;11.80;6.83;;;;;;;17.78;100.00;96756.00;5029403;28;103920;-61
2022/10/13 10:50:52;;;;;;;6.83;6.23;;;;;;;17.71;100.00;96742.88;5028909;28;103119;-61
2022/10/13 10:53:27;;;;;;;8.17;6.30;;;;;;;17.39;100.00;96733.81;5028705;28;102069;-61
2022/10/13 10:56:04;;;;;;;8.77;6.23;;;;;;;17.95;100.00;96734.78;5029279;28;105850;-60
2022/10/13 10:58:39;;;;;;;7.27;5.87;;;;;;;18.09;100.00;96735.69;5032305;28;105831;-61
2022/10/13 11:01:14;;;;;;;10.50;6.50;;;;;;;17.62;100.00;96735.72;5030791;28;102602;-61
2022/10/13 11:03:54;;;;;;;10.50;6.27;;;;;;;17.68;100.00;96738.09;5030091;27;102734;-60
2022/10/13 11:06:34;;;;;;;9.53;6.13;;;;;;;17.32;100.00;96733.31;5029306;28;102243;-60
2022/10/13 11:09:02;;;;;;;8.33;6.00;;;;;;;17.45;100.00;96724.63;5029097;27;105082;-60
2022/10/13 11:11:41;;;;;;;11.63;6.70;;;;;;;17.61;100.00;96726.06;5028690;28;105295;-60
2022/10/13 11:14:29;;;;;;;8.10;6.20;;;;;;;17.50;100.00;96714.59;5028793;28;101941;-60
2022/10/13 11:17:27;;;;;;;8.20;5.27;;;;;;;18.39;100.00;96706.50;5030563;28;102305;-60
2022/10/13 11:19:54;;;;;;;8.10;5.70;;;;;;;18.49;100.00;96700.97;5017648;27;102713;-61
2022/10/13 11:22:36;;;;;;;7.50;5.80;;;;;;;18.77;100.00;96701.84;5031907;28;102050;-61
2022/10/13 11:25:38;;;;;;;6.50;5.67;;;;;;;19.07;100.00;96704.06;5029830;28;102687;-61
2022/10/13 11:28:41;;;;;;;14.43;6.37;;;;;;;19.20;100.00;96704.09;5025016;28;102061;-60
2022/10/13 11:31:26;;;;;;;8.73;6.03;;;;;;;19.39;100.00;96701.31;5030028;27;102593;-61
2022/10/13 11:34:01;;;;;;;7.80;5.90;;;;;;;19.56;100.00;96704.28;5009134;28;106395;-61
2022/10/13 11:36:48;;;;;;;6.50;5.23;;;;;;;19.64;100.00;96698.16;5030031;28;101716;-61
2022/10/13 11:39:58;;;;;;;10.73;6.40;;;;;;;19.68;100.00;96691.06;5030421;28;102356;-61
2022/10/13 11:42:47;;;;;;;7.33;6.50;;;;;;;19.29;100.00;96698.84;5029506;27;102531;-61
2022/10/13 11:45:25;;;;;;;11.97;7.20;;;;;;;17.60;100.00;96692.19;5028562;28;101908;-60
2022/10/13 11:48:19;;;;;;;9.57;6.83;;;;;;;17.27;100.00;96685.00;5031274;28;105687;-60
2022/10/13 11:51:00;;;;;;;11.07;7.47;;;;;;;17.87;100.00;96678.94;5027628;28;101924;-61
2022/10/13 11:53:33;;;;;;;9.60;6.73;;;;;;;18.51;100.00;96673.72;5027935;28;105012;-60